Time;durP1;ratioP1;P1;durP2;ratioP2;P2;SDS_P1;SDS_P2;PMS_P1;PMS_P2;Temp;Humidity;BMP_temperature;BMP_pressure;BME280_temperature;BME280_humidity;BME280_pressure;Samples;Min_cycle;Max_cycle;Signal;HPM_P1;HPM_P2
2022/07/20 00:01:30;;;;;;;4.88;2.85;;;24.10;65.40;;;;;;5073290;28;20228;-58
2022/07/20 00:03:56;;;;;;;7.47;3.30;;;24.10;65.20;;;;;;5072975;28;20687;-59
2022/07/20 00:06:23;;;;;;;4.88;3.60;;;24.10;64.70;;;;;;5072842;28;20570;-60
2022/07/20 00:11:35;;;;;;;5.95;3.30;;;24.30;64.00;;;;;;5072976;28;20675;-60
2022/07/20 00:14:04;;;;;;;5.82;3.38;;;24.40;63.80;;;;;;5072737;28;20204;-59
2022/07/20 00:16:33;;;;;;;4.43;3.20;;;24.40;63.80;;;;;;5072639;28;20201;-58
2022/07/20 00:19:00;;;;;;;5.72;2.83;;;24.30;63.80;;;;;;5072596;28;20624;-59
2022/07/20 00:21:27;;;;;;;11.00;3.63;;;24.20;64.00;;;;;;5073794;28;20251;-59
2022/07/20 00:23:54;;;;;;;4.18;2.80;;;24.20;64.00;;;;;;5073289;28;20201;-60
2022/07/20 00:26:21;;;;;;;4.60;2.75;;;24.30;64.10;;;;;;5073616;28;20201;-58
2022/07/20 00:28:50;;;;;;;5.28;3.10;;;24.30;64.00;;;;;;5073497;28;20624;-59
2022/07/20 00:31:17;;;;;;;4.88;2.90;;;24.20;64.40;;;;;;5073253;28;20252;-59
2022/07/20 00:33:46;;;;;;;8.57;3.75;;;24.10;64.50;;;;;;5072479;28;20688;-59
2022/07/20 00:36:13;;;;;;;4.18;3.05;;;24.10;65.30;;;;;;5072529;28;20734;-59
2022/07/20 00:38:40;;;;;;;5.85;3.20;;;24.10;65.30;;;;;;5072827;28;20208;-59
2022/07/20 00:41:07;;;;;;;5.28;3.00;;;24.00;65.30;;;;;;5072615;28;20236;-59
2022/07/20 00:44:02;;;;;;;7.03;2.95;;;23.90;65.30;;;;;;5072367;28;20228;-59
2022/07/20 00:46:30;;;;;;;4.53;3.10;;;24.00;65.60;;;;;;5072604;28;20204;-59
2022/07/20 00:48:58;;;;;;;5.95;3.00;;;23.90;65.00;;;;;;5072514;28;20216;-59
2022/07/20 00:51:25;;;;;;;3.00;2.70;;;23.90;65.30;;;;;;5072177;28;20236;-59
2022/07/20 00:53:53;;;;;;;6.13;2.80;;;23.90;65.80;;;;;;5072109;28;20263;-60
2022/07/20 00:56:21;;;;;;;4.50;3.03;;;23.90;65.20;;;;;;5072107;28;20236;-59
2022/07/20 00:58:47;;;;;;;6.97;3.10;;;23.90;65.10;;;;;;5072412;28;20209;-58
2022/07/20 01:01:15;;;;;;;6.10;3.20;;;23.90;65.10;;;;;;5072069;28;20225;-59
2022/07/20 01:03:42;;;;;;;4.28;3.00;;;23.90;64.60;;;;;;5071869;28;20664;-59
2022/07/20 01:06:11;;;;;;;3.75;2.78;;;24.00;64.90;;;;;;5071971;28;20604;-59
2022/07/20 01:08:38;;;;;;;3.05;2.65;;;23.90;65.30;;;;;;5072038;28;20577;-59
2022/07/20 01:11:06;;;;;;;6.28;2.38;;;23.90;65.90;;;;;;5071981;28;20581;-59
2022/07/20 01:13:33;;;;;;;5.88;2.88;;;23.80;67.10;;;;;;5071854;28;20216;-58
2022/07/20 01:16:00;;;;;;;4.82;3.00;;;23.80;66.60;;;;;;5071900;28;20213;-58
2022/07/20 01:18:26;;;;;;;3.90;2.72;;;23.80;66.60;;;;;;5072306;28;20208;-59
2022/07/20 01:21:00;;;;;;;4.00;3.10;;;23.70;66.40;;;;;;5072087;28;20227;-60
2022/07/20 01:23:27;;;;;;;6.45;2.97;;;23.70;66.10;;;;;;5072363;28;20662;-60
2022/07/20 01:25:53;;;;;;;3.97;2.60;;;23.70;65.60;;;;;;5071787;28;20232;-59
2022/07/20 01:28:20;;;;;;;5.75;3.35;;;23.70;67.30;;;;;;5071956;28;20223;-58
2022/07/20 01:30:47;;;;;;;5.88;3.20;;;23.70;65.90;;;;;;5075257;28;20221;-60
2022/07/20 01:33:14;;;;;;;5.68;2.95;;;23.70;66.00;;;;;;5075821;28;20600;-59
2022/07/20 01:35:40;;;;;;;7.30;2.90;;;23.60;67.10;;;;;;5076004;28;20213;-58
2022/07/20 01:38:08;;;;;;;8.45;3.05;;;23.60;66.50;;;;;;5075913;28;20282;-58
2022/07/20 01:40:35;;;;;;;3.50;2.70;;;23.60;65.90;;;;;;5075613;28;20231;-58
2022/07/20 01:43:02;;;;;;;8.13;3.15;;;23.60;65.50;;;;;;5075611;28;20216;-59
2022/07/20 01:45:28;;;;;;;3.30;2.67;;;23.60;65.80;;;;;;5075905;28;20210;-59
2022/07/20 01:47:55;;;;;;;10.23;3.58;;;23.60;66.20;;;;;;5075722;28;20208;-59
2022/07/20 01:50:22;;;;;;;5.50;2.63;;;23.60;66.20;;;;;;5075551;28;20232;-59
2022/07/20 01:52:50;;;;;;;4.97;3.25;;;23.60;67.20;;;;;;5075599;28;20201;-59
2022/07/20 01:55:18;;;;;;;7.72;3.22;;;23.60;68.60;;;;;;5075333;28;20200;-59
2022/07/20 01:57:44;;;;;;;7.28;3.08;;;23.40;69.00;;;;;;5075299;28;20669;-58
2022/07/20 02:00:13;;;;;;;7.40;3.35;;;23.30;69.20;;;;;;5075355;28;20220;-58
2022/07/20 02:02:40;;;;;;;4.50;2.97;;;23.20;69.60;;;;;;5075430;28;20229;-58
2022/07/20 02:05:08;;;;;;;6.68;2.70;;;23.10;70.80;;;;;;5075292;28;20254;-58
2022/07/20 02:07:34;;;;;;;6.35;3.30;;;23.00;71.30;;;;;;5075241;28;20629;-59
2022/07/20 02:10:01;;;;;;;4.53;3.00;;;22.90;71.30;;;;;;5075044;28;20225;-58
2022/07/20 02:12:30;;;;;;;6.25;2.95;;;22.80;71.50;;;;;;5075436;28;20205;-59
2022/07/20 02:14:56;;;;;;;4.32;3.35;;;22.70;71.90;;;;;;5075059;28;20240;-58
2022/07/20 02:17:23;;;;;;;5.38;3.00;;;22.60;73.10;;;;;;5075250;28;20201;-58
2022/07/20 02:19:50;;;;;;;7.75;3.03;;;22.50;73.10;;;;;;5075973;28;20274;-58
2022/07/20 02:22:16;;;;;;;4.85;3.42;;;22.40;74.40;;;;;;5075121;28;20278;-58
2022/07/20 02:24:43;;;;;;;8.15;3.20;;;22.30;74.80;;;;;;5074508;28;20678;-58
2022/07/20 02:27:11;;;;;;;7.40;3.17;;;22.10;75.00;;;;;;5074996;28;20304;-58
2022/07/20 02:29:39;;;;;;;5.85;3.60;;;22.10;75.00;;;;;;5075270;28;20275;-59
2022/07/20 02:32:06;;;;;;;4.85;3.63;;;22.00;74.90;;;;;;5074827;28;20211;-58
2022/07/20 02:34:33;;;;;;;6.25;3.40;;;22.00;75.30;;;;;;5074474;28;20204;-59
2022/07/20 02:37:00;;;;;;;7.13;3.22;;;22.00;75.80;;;;;;5074597;28;20213;-58
2022/07/20 02:39:27;;;;;;;6.15;3.13;;;21.90;76.60;;;;;;5074385;28;20225;-60
2022/07/20 02:41:53;;;;;;;5.40;3.33;;;21.80;77.00;;;;;;5074255;28;20263;-59
2022/07/20 02:44:20;;;;;;;5.07;3.17;;;21.90;77.20;;;;;;5074425;28;20286;-58
2022/07/20 02:46:48;;;;;;;9.32;3.13;;;21.80;77.00;;;;;;5074624;28;20205;-58
2022/07/20 02:49:14;;;;;;;7.00;3.30;;;21.80;77.30;;;;;;5074282;28;20250;-59
2022/07/20 02:51:41;;;;;;;5.50;3.00;;;21.80;77.50;;;;;;5074383;28;20239;-59
2022/07/20 02:54:08;;;;;;;6.10;3.30;;;21.70;78.30;;;;;;5073998;28;20208;-58
2022/07/20 02:56:34;;;;;;;6.43;3.15;;;21.60;78.90;;;;;;5074244;28;20208;-59
2022/07/20 02:59:01;;;;;;;4.60;3.28;;;21.60;79.10;;;;;;5075339;28;20208;-60
2022/07/20 03:01:28;;;;;;;4.63;3.35;;;21.60;79.40;;;;;;5075556;28;20209;-60
2022/07/20 03:03:56;;;;;;;4.93;3.15;;;21.50;79.70;;;;;;5074556;28;20251;-57
2022/07/20 03:06:22;;;;;;;4.70;3.28;;;21.40;80.50;;;;;;5074387;28;20570;-58
2022/07/20 03:08:49;;;;;;;4.85;3.25;;;21.30;81.40;;;;;;5074447;28;20208;-58
2022/07/20 03:11:16;;;;;;;7.03;3.20;;;21.20;81.90;;;;;;5074330;28;20232;-58
2022/07/20 03:13:42;;;;;;;6.65;3.25;;;21.10;82.80;;;;;;5074747;28;20211;-57
2022/07/20 03:16:09;;;;;;;6.10;3.30;;;21.00;83.80;;;;;;5074675;28;20251;-58
2022/07/20 03:18:36;;;;;;;6.40;2.90;;;21.00;83.80;;;;;;5074500;28;20665;-58
2022/07/20 03:21:04;;;;;;;4.65;2.95;;;20.90;85.40;;;;;;5074659;28;20584;-58
2022/07/20 03:23:31;;;;;;;7.13;3.30;;;20.90;85.20;;;;;;5074834;28;20243;-57
2022/07/20 03:25:57;;;;;;;6.28;3.78;;;20.90;85.00;;;;;;5074395;28;20572;-58
2022/07/20 03:28:24;;;;;;;5.00;3.50;;;20.90;85.20;;;;;;5074783;28;20208;-57
2022/07/20 03:30:51;;;;;;;5.32;3.30;;;20.90;85.80;;;;;;5074361;28;20232;-58
2022/07/20 03:33:17;;;;;;;3.92;3.10;;;20.80;86.80;;;;;;5074578;28;20201;-58
2022/07/20 03:35:44;;;;;;;5.57;2.75;;;20.80;86.80;;;;;;5073963;28;20208;-59
2022/07/20 03:38:12;;;;;;;6.45;3.33;;;20.80;88.00;;;;;;5074436;28;20220;-58
2022/07/20 03:40:39;;;;;;;6.65;3.40;;;20.70;87.20;;;;;;5074374;28;20270;-58
2022/07/20 03:43:05;;;;;;;5.32;3.35;;;20.70;87.90;;;;;;5073942;28;20712;-58
2022/07/20 03:45:32;;;;;;;7.50;3.67;;;20.60;89.00;;;;;;5073460;28;20665;-59
2022/07/20 03:47:59;;;;;;;8.18;3.70;;;20.40;89.90;;;;;;5073754;28;20205;-58
2022/07/20 03:50:26;;;;;;;6.15;3.25;;;20.30;90.30;;;;;;5096812;22;20306;-59
2022/07/20 03:52:53;;;;;;;5.40;3.47;;;20.30;90.80;;;;;;5072367;28;20550;-60
2022/07/20 03:55:21;;;;;;;7.20;3.42;;;20.30;91.00;;;;;;5073095;28;20209;-59
2022/07/20 03:57:47;;;;;;;4.88;3.33;;;20.30;91.00;;;;;;5074621;28;20661;-58
2022/07/20 04:00:15;;;;;;;8.15;3.15;;;20.20;91.50;;;;;;5075294;28;20224;-58
2022/07/20 04:02:42;;;;;;;6.90;3.28;;;20.10;91.70;;;;;;5074705;28;20599;-59
2022/07/20 04:05:09;;;;;;;5.43;3.05;;;20.00;92.00;;;;;;5075098;28;20636;-59
2022/07/20 04:07:35;;;;;;;5.68;3.25;;;19.90;92.70;;;;;;5075030;28;20588;-60
2022/07/20 04:10:02;;;;;;;3.70;2.97;;;19.80;93.20;;;;;;5074962;28;20774;-59
2022/07/20 04:12:30;;;;;;;8.98;3.47;;;19.80;93.30;;;;;;5074897;28;20213;-62
2022/07/20 04:14:57;;;;;;;4.32;3.05;;;19.90;93.30;;;;;;5074989;28;20209;-61
2022/07/20 04:17:24;;;;;;;5.53;3.25;;;20.00;93.50;;;;;;5074499;28;20220;-59
2022/07/20 04:19:51;;;;;;;5.10;3.38;;;20.00;93.60;;;;;;5074343;28;20339;-59
2022/07/20 04:22:17;;;;;;;5.95;3.25;;;20.10;93.70;;;;;;5073876;28;20254;-61
2022/07/20 04:24:44;;;;;;;6.10;3.40;;;20.10;93.90;;;;;;5072791;28;20216;-59
2022/07/20 04:27:11;;;;;;;8.65;3.13;;;20.20;93.60;;;;;;5073040;28;20212;-59
2022/07/20 04:29:39;;;;;;;6.65;3.50;;;20.30;93.40;;;;;;5073098;28;20208;-61
2022/07/20 04:32:06;;;;;;;5.50;2.97;;;20.40;93.50;;;;;;5073327;28;20699;-60
2022/07/20 04:34:33;;;;;;;4.85;3.20;;;20.40;93.50;;;;;;5073601;28;20616;-59
2022/07/20 04:37:00;;;;;;;10.80;3.47;;;20.40;93.50;;;;;;5073526;28;20213;-60
2022/07/20 04:39:27;;;;;;;7.93;2.90;;;20.60;93.20;;;;;;5072991;28;20262;-59
2022/07/20 04:41:54;;;;;;;9.52;3.95;;;20.70;92.90;;;;;;5073053;28;20305;-61
2022/07/20 04:44:20;;;;;;;5.20;3.15;;;20.80;92.80;;;;;;5072761;28;20252;-58
2022/07/20 04:46:48;;;;;;;7.38;3.15;;;21.00;92.80;;;;;;5073737;28;20587;-58
2022/07/20 04:49:15;;;;;;;5.57;3.38;;;21.00;92.50;;;;;;5074181;28;20208;-58
2022/07/20 04:51:42;;;;;;;6.57;3.13;;;21.20;92.30;;;;;;5073518;28;20263;-58
2022/07/20 04:54:09;;;;;;;5.72;3.00;;;21.20;92.20;;;;;;5072849;28;20424;-58
2022/07/20 04:56:36;;;;;;;8.00;3.40;;;21.40;92.20;;;;;;5072006;28;20237;-59
2022/07/20 04:59:03;;;;;;;8.45;3.40;;;21.50;92.20;;;;;;5072096;28;20231;-58
2022/07/20 05:01:30;;;;;;;6.47;3.88;;;21.60;92.00;;;;;;5071641;28;20612;-60
2022/07/20 05:03:58;;;;;;;6.88;3.60;;;21.70;91.70;;;;;;5071683;28;20228;-58
2022/07/20 05:06:25;;;;;;;5.90;3.30;;;21.80;91.70;;;;;;5071996;28;20201;-59
2022/07/20 05:08:52;;;;;;;4.90;3.50;;;22.00;91.50;;;;;;5071953;28;20201;-58
2022/07/20 05:11:18;;;;;;;9.50;3.50;;;22.20;91.20;;;;;;5071809;28;20240;-61
2022/07/20 05:13:45;;;;;;;4.72;3.08;;;22.20;91.00;;;;;;5072101;28;20259;-59
2022/07/20 05:16:12;;;;;;;5.68;3.30;;;22.30;90.70;;;;;;5071338;28;20644;-58
2022/07/20 05:18:39;;;;;;;4.65;3.30;;;22.40;90.60;;;;;;5071699;28;20205;-58
2022/07/20 05:21:07;;;;;;;5.57;3.53;;;22.60;90.80;;;;;;5071879;28;20716;-58
2022/07/20 05:23:34;;;;;;;10.70;2.97;;;22.70;90.60;;;;;;5073392;28;20274;-58
2022/07/20 05:26:02;;;;;;;5.32;3.30;;;23.00;89.90;;;;;;5075053;28;20209;-57
2022/07/20 05:28:29;;;;;;;4.90;3.35;;;23.30;88.90;;;;;;5073739;28;20212;-58
2022/07/20 05:30:55;;;;;;;6.60;3.92;;;23.70;87.70;;;;;;5072235;28;20290;-60
2022/07/20 05:33:22;;;;;;;7.95;3.35;;;24.10;86.60;;;;;;5073167;28;20201;-58
2022/07/20 05:35:50;;;;;;;8.38;3.38;;;24.20;85.20;;;;;;5073078;28;20205;-58
2022/07/20 05:38:18;;;;;;;5.03;3.15;;;24.50;83.90;;;;;;5072242;28;20209;-60
2022/07/20 05:40:45;;;;;;;5.78;3.45;;;25.20;82.20;;;;;;5071268;28;20670;-61
2022/07/20 05:43:12;;;;;;;6.10;3.17;;;27.00;76.30;;;;;;5071513;28;20233;-58
2022/07/20 05:45:39;;;;;;;8.35;2.90;;;28.90;69.70;;;;;;5071351;28;20502;-58
2022/07/20 05:48:10;;;;;;;5.53;2.72;;;30.30;63.80;;;;;;5071149;28;20209;-59
2022/07/20 05:50:37;;;;;;;5.50;2.70;;;31.30;60.10;;;;;;5070977;28;20233;-59
2022/07/20 05:53:04;;;;;;;7.82;2.75;;;32.00;57.80;;;;;;5071261;28;20197;-59
2022/07/20 05:55:32;;;;;;;5.88;3.30;;;32.20;56.10;;;;;;5071277;28;20227;-58
2022/07/20 05:57:59;;;;;;;6.97;3.20;;;32.00;56.80;;;;;;5071393;28;20627;-58
2022/07/20 06:00:26;;;;;;;6.88;3.25;;;31.80;56.00;;;;;;5071008;28;20232;-61
2022/07/20 06:02:52;;;;;;;4.57;2.67;;;32.20;55.60;;;;;;5070806;28;20201;-58
2022/07/20 06:05:19;;;;;;;4.35;3.00;;;33.20;53.40;;;;;;5070907;28;20212;-59
2022/07/20 06:07:46;;;;;;;6.93;3.35;;;34.00;51.60;;;;;;5070764;28;20628;-59
2022/07/20 06:10:13;;;;;;;7.60;3.03;;;33.80;51.70;;;;;;5070931;28;20568;-58
2022/07/20 06:12:41;;;;;;;6.38;2.90;;;34.50;50.70;;;;;;5070926;28;20204;-61
2022/07/20 06:15:09;;;;;;;7.60;2.60;;;35.50;48.90;;;;;;5071476;28;20204;-60
2022/07/20 06:17:37;;;;;;;5.32;3.17;;;36.50;47.40;;;;;;5074960;28;20213;-63
2022/07/20 06:20:07;;;;;;;8.23;2.78;;;37.30;46.20;;;;;;5074557;28;20320;-58
2022/07/20 06:22:34;;;;;;;4.93;2.53;;;38.20;44.30;;;;;;5074875;28;20208;-59
2022/07/20 06:25:01;;;;;;;3.88;2.22;;;38.70;43.80;;;;;;5074359;28;20243;-59
2022/07/20 06:27:28;;;;;;;7.55;2.63;;;39.40;42.60;;;;;;5074555;28;20231;-60
2022/07/20 06:29:56;;;;;;;5.20;2.10;;;40.10;41.60;;;;;;5074535;28;20224;-61
2022/07/20 06:32:23;;;;;;;9.13;2.47;;;40.50;40.70;;;;;;5074363;28;20209;-61
2022/07/20 06:34:49;;;;;;;5.85;2.55;;;40.80;40.30;;;;;;5074381;28;20251;-60
2022/07/20 06:37:16;;;;;;;6.22;2.33;;;41.40;39.50;;;;;;5074678;28;20236;-60
2022/07/20 06:39:43;;;;;;;4.68;2.80;;;42.20;38.40;;;;;;5074319;28;20255;-61
2022/07/20 06:42:10;;;;;;;8.63;2.50;;;42.90;37.70;;;;;;5074406;28;20235;-60
2022/07/20 06:44:37;;;;;;;7.88;2.85;;;43.20;36.70;;;;;;5073925;28;20274;-61
2022/07/20 06:47:06;;;;;;;3.70;2.60;;;43.30;36.20;;;;;;5073857;28;20582;-60
2022/07/20 06:49:32;;;;;;;3.97;2.63;;;43.30;36.20;;;;;;5073844;28;20338;-65
2022/07/20 06:51:59;;;;;;;6.07;3.17;;;43.50;36.40;;;;;;5074256;28;20200;-62
2022/07/20 06:54:25;;;;;;;5.10;3.30;;;43.50;36.80;;;;;;5073746;28;20231;-62
2022/07/20 06:56:52;;;;;;;5.68;3.80;;;43.70;37.50;;;;;;5073876;28;20254;-61
2022/07/20 06:59:19;;;;;;;16.30;3.88;;;43.80;37.40;;;;;;5073910;28;20222;-61
2022/07/20 07:01:46;;;;;;;9.73;4.15;;;43.80;37.60;;;;;;5073364;28;20232;-63
2022/07/20 07:04:14;;;;;;;6.00;3.30;;;44.10;37.40;;;;;;5073836;28;20258;-62
2022/07/20 07:06:41;;;;;;;6.85;3.05;;;44.70;36.20;;;;;;5074086;28;20255;-62
2022/07/20 07:09:09;;;;;;;5.97;2.60;;;44.90;36.00;;;;;;5074033;28;20273;-65
2022/07/20 07:11:35;;;;;;;6.20;3.03;;;44.60;36.20;;;;;;5073725;28;20224;-62
2022/07/20 07:14:02;;;;;;;7.20;2.83;;;44.90;35.90;;;;;;5073682;28;20204;-64
2022/07/20 07:16:29;;;;;;;8.05;2.80;;;45.80;35.30;;;;;;5073303;28;20254;-63
2022/07/20 07:18:56;;;;;;;8.35;2.80;;;46.70;33.90;;;;;;5073652;28;20206;-65
2022/07/20 07:21:24;;;;;;;5.32;2.83;;;47.80;32.80;;;;;;5073525;28;20301;-63
2022/07/20 07:23:50;;;;;;;7.65;2.58;;;48.60;31.40;;;;;;5073471;28;20216;-63
2022/07/20 07:26:18;;;;;;;6.20;2.55;;;49.10;30.60;;;;;;5072652;28;20254;-63
2022/07/20 07:28:44;;;;;;;5.03;2.40;;;49.60;30.20;;;;;;5072745;28;20231;-65
2022/07/20 07:31:11;;;;;;;5.65;2.53;;;49.90;30.20;;;;;;5073081;28;20319;-63
2022/07/20 07:33:38;;;;;;;5.18;2.10;;;50.20;30.00;;;;;;5073265;28;20201;-66
2022/07/20 07:36:06;;;;;;;5.03;2.40;;;50.60;29.50;;;;;;5072836;28;20671;-63
2022/07/20 07:38:34;;;;;;;5.30;2.08;;;51.10;29.20;;;;;;5073391;28;20281;-63
2022/07/20 07:41:01;;;;;;;6.05;2.53;;;51.10;29.10;;;;;;5073223;28;20221;-64
2022/07/20 07:43:28;;;;;;;8.75;2.70;;;51.00;28.90;;;;;;5072910;28;20200;-64
2022/07/20 07:45:55;;;;;;;6.70;2.40;;;50.60;28.90;;;;;;5073081;28;20656;-64
2022/07/20 07:48:22;;;;;;;3.67;2.28;;;50.50;29.10;;;;;;5072914;28;20212;-63
2022/07/20 07:50:48;;;;;;;4.35;2.45;;;49.00;30.00;;;;;;5072811;28;20262;-65
2022/07/20 07:53:15;;;;;;;6.25;2.70;;;48.30;30.70;;;;;;5072988;28;20208;-64
2022/07/20 07:55:43;;;;;;;5.88;2.63;;;48.20;30.60;;;;;;5072590;28;20208;-63
2022/07/20 07:58:12;;;;;;;7.05;2.78;;;48.80;30.10;;;;;;5072812;28;20212;-63
2022/07/20 08:00:39;;;;;;;7.78;2.85;;;49.40;29.40;;;;;;5072799;28;20335;-64
2022/07/20 08:03:06;;;;;;;8.38;3.15;;;49.30;29.30;;;;;;5073180;28;20262;-63
2022/07/20 08:05:33;;;;;;;4.00;2.60;;;49.30;29.40;;;;;;5072322;28;20237;-64
2022/07/20 08:08:06;;;;;;;4.85;2.88;;;49.30;28.80;;;;;;5072727;28;20304;-63
2022/07/20 08:10:33;;;;;;;8.43;3.55;;;49.60;28.80;;;;;;5072436;28;20252;-64
2022/07/20 08:13:01;;;;;;;4.05;3.10;;;49.90;28.50;;;;;;5072590;28;20211;-64
2022/07/20 08:15:28;;;;;;;7.75;3.30;;;50.20;28.20;;;;;;5072151;28;20253;-64
2022/07/20 08:17:55;;;;;;;4.95;3.20;;;50.40;27.70;;;;;;5072442;28;20208;-67
2022/07/20 08:20:23;;;;;;;4.15;2.75;;;50.70;27.50;;;;;;5072373;28;20232;-64
2022/07/20 08:22:50;;;;;;;9.70;2.50;;;51.00;28.00;;;;;;5072444;28;20208;-64
2022/07/20 08:25:17;;;;;;;5.05;2.40;;;50.90;28.30;;;;;;5072113;28;20220;-63
2022/07/20 08:27:43;;;;;;;3.58;2.10;;;50.20;28.90;;;;;;5072356;28;20208;-65
2022/07/20 08:30:13;;;;;;;5.22;2.40;;;49.70;29.00;;;;;;5072219;28;20228;-64
2022/07/20 08:32:40;;;;;;;6.22;2.55;;;49.50;29.30;;;;;;5072240;28;20204;-65
2022/07/20 08:35:07;;;;;;;8.30;2.70;;;49.30;29.30;;;;;;5072139;28;20334;-63
2022/07/20 08:37:34;;;;;;;5.47;2.60;;;49.20;29.20;;;;;;5071831;28;20674;-63
2022/07/20 08:40:01;;;;;;;4.68;2.63;;;49.20;29.50;;;;;;5071840;28;20231;-62
2022/07/20 08:42:28;;;;;;;3.33;2.78;;;49.20;29.40;;;;;;5072188;28;20285;-65
2022/07/20 08:44:54;;;;;;;5.72;2.67;;;49.10;29.20;;;;;;5071664;28;20227;-63
2022/07/20 08:47:26;;;;;;;6.00;2.80;;;49.20;28.80;;;;;;5071946;28;20208;-62
2022/07/20 08:49:52;;;;;;;7.72;3.08;;;48.80;29.80;;;;;;5071664;28;20315;-62
2022/07/20 08:52:19;;;;;;;7.72;3.25;;;48.00;29.90;;;;;;5071802;28;20265;-63
2022/07/20 08:54:47;;;;;;;6.07;3.25;;;46.70;30.20;;;;;;5071602;28;20708;-62
2022/07/20 08:57:15;;;;;;;5.45;3.05;;;45.00;31.90;;;;;;5072166;28;20208;-58
2022/07/20 08:59:42;;;;;;;5.03;3.22;;;43.30;33.40;;;;;;5071781;28;20303;-59
2022/07/20 09:02:10;;;;;;;6.07;3.22;;;41.70;35.20;;;;;;5071829;28;20587;-58
2022/07/20 09:04:50;;;;;;;6.30;3.60;;;40.10;36.60;;;;;;5071517;28;20692;-59
2022/07/20 09:07:17;;;;;;;8.10;3.30;;;38.90;37.90;;;;;;5071624;28;20215;-59
2022/07/20 09:09:44;;;;;;;7.55;3.55;;;38.00;39.20;;;;;;5071660;28;20201;-59
2022/07/20 09:12:10;;;;;;;8.02;3.80;;;37.50;40.20;;;;;;5071743;28;20262;-59
2022/07/20 09:14:42;;;;;;;7.07;3.67;;;36.90;40.60;;;;;;5071419;28;20641;-58
2022/07/20 09:17:17;;;;;;;5.40;3.72;;;36.50;41.40;;;;;;5071953;28;20608;-59
2022/07/20 09:20:00;;;;;;;9.32;4.15;;;36.10;41.70;;;;;;5072263;28;20250;-58
2022/07/20 09:22:32;;;;;;;9.77;3.80;;;36.00;42.70;;;;;;5073017;28;20287;-59
2022/07/20 09:25:07;;;;;;;7.25;3.90;;;35.80;42.70;;;;;;5072430;28;20217;-59
2022/07/20 09:27:34;;;;;;;4.75;3.40;;;35.70;42.60;;;;;;5072830;28;20204;-58
2022/07/20 09:30:07;;;;;;;6.45;3.80;;;35.60;42.60;;;;;;5071787;28;20232;-59
2022/07/20 09:32:49;;;;;;;8.73;3.97;;;35.50;41.90;;;;;;5071946;28;20204;-59
2022/07/20 09:35:19;;;;;;;13.00;3.90;;;35.40;42.30;;;;;;5071526;28;20204;-58
2022/07/20 09:37:46;;;;;;;8.00;4.03;;;35.40;42.50;;;;;;5071361;28;20205;-58
2022/07/20 09:40:13;;;;;;;10.60;4.25;;;35.30;43.00;;;;;;5071298;28;20237;-59
2022/07/20 09:42:42;;;;;;;11.15;3.70;;;35.30;43.10;;;;;;5071343;28;20668;-58
2022/07/20 09:45:24;;;;;;;7.97;3.40;;;35.10;43.40;;;;;;5071161;28;20232;-58
2022/07/20 09:48:05;;;;;;;7.70;3.65;;;35.00;43.80;;;;;;5071780;28;20565;-58
2022/07/20 09:50:35;;;;;;;10.55;3.88;;;35.00;43.70;;;;;;5094984;22;20220;-56
2022/07/20 09:53:02;;;;;;;9.95;4.68;;;35.00;43.50;;;;;;5075511;28;20205;-55
2022/07/20 09:55:31;;;;;;;8.10;3.42;;;35.10;43.90;;;;;;5075098;28;20254;-55
2022/07/20 09:57:59;;;;;;;9.60;3.92;;;35.10;44.00;;;;;;5074948;28;20678;-56
2022/07/20 10:00:26;;;;;;;7.32;4.82;;;35.10;43.00;;;;;;5075049;28;20285;-55
2022/07/20 10:02:54;;;;;;;11.73;3.97;;;35.00;42.30;;;;;;5075001;28;20209;-55
2022/07/20 10:05:22;;;;;;;7.00;4.53;;;35.00;43.40;;;;;;5074557;28;20269;-54
2022/07/20 10:07:51;;;;;;;8.82;3.88;;;35.10;43.40;;;;;;5074926;28;20262;-55
2022/07/20 10:10:17;;;;;;;7.68;3.95;;;35.10;43.30;;;;;;5074672;28;20716;-55
2022/07/20 10:12:44;;;;;;;12.25;4.10;;;35.20;43.60;;;;;;5074672;28;20205;-55
2022/07/20 10:15:15;;;;;;;7.68;4.57;;;35.20;43.20;;;;;;5074280;28;20713;-54
2022/07/20 10:17:44;;;;;;;10.63;4.60;;;35.10;43.80;;;;;;5074386;28;20652;-55
2022/07/20 10:20:30;;;;;;;10.95;4.18;;;35.10;43.40;;;;;;5074605;28;20783;-56
2022/07/20 10:23:27;;;;;;;6.63;4.00;;;35.00;42.80;;;;;;5074732;28;20240;-55
2022/07/20 10:25:54;;;;;;;6.80;3.67;;;34.90;42.70;;;;;;5074268;28;20220;-54
2022/07/20 10:28:35;;;;;;;5.90;4.07;;;34.90;42.80;;;;;;5074604;28;20680;-55
2022/07/20 10:31:06;;;;;;;11.10;4.28;;;35.00;42.30;;;;;;5074706;28;20237;-54
2022/07/20 10:33:34;;;;;;;6.28;4.43;;;35.00;42.20;;;;;;5074796;28;20266;-55
2022/07/20 10:39:30;;;;;;;8.20;4.10;;;35.00;42.20;;;;;;5074746;28;20203;-56
2022/07/20 10:42:32;;;;;;;12.23;4.00;;;35.10;42.30;;;;;;5073301;28;20225;-55
2022/07/20 10:45:29;;;;;;;9.82;4.95;;;35.30;42.40;;;;;;5071590;28;20594;-54
2022/07/20 10:47:58;;;;;;;8.68;3.90;;;35.60;42.60;;;;;;5074647;28;20205;-54
2022/07/20 10:50:29;;;;;;;10.32;4.15;;;35.70;41.90;;;;;;5074019;28;20327;-54
2022/07/20 10:52:57;;;;;;;6.57;3.60;;;35.80;42.60;;;;;;5074417;28;20584;-54
2022/07/20 10:55:53;;;;;;;10.75;3.92;;;35.80;41.70;;;;;;5074084;28;20258;-54
2022/07/20 10:58:22;;;;;;;8.10;4.00;;;35.80;41.80;;;;;;5074261;28;20557;-55
2022/07/20 11:00:51;;;;;;;10.05;3.92;;;35.80;41.20;;;;;;5073802;28;20225;-54
2022/07/20 11:03:21;;;;;;;10.30;4.03;;;35.80;41.10;;;;;;5073936;28;20624;-55
2022/07/20 11:05:59;;;;;;;10.35;3.97;;;35.90;41.00;;;;;;5073369;28;20229;-55
2022/07/20 11:08:25;;;;;;;9.90;4.15;;;36.10;41.10;;;;;;5070413;28;20727;-55
2022/07/20 11:10:54;;;;;;;5.72;3.63;;;36.20;42.20;;;;;;5072590;28;20756;-54
2022/07/20 11:13:20;;;;;;;12.13;4.55;;;36.30;41.40;;;;;;5072935;28;20208;-55
2022/07/20 11:15:49;;;;;;;8.88;3.80;;;36.30;41.70;;;;;;5072763;28;20453;-57
2022/07/20 11:18:21;;;;;;;11.20;4.45;;;36.30;41.20;;;;;;5072237;28;20331;-60
2022/07/20 11:20:53;;;;;;;13.40;4.97;;;36.40;41.50;;;;;;5072780;28;20228;-59
2022/07/20 11:23:21;;;;;;;9.00;4.32;;;36.40;41.60;;;;;;5072554;28;20711;-62
2022/07/20 11:25:51;;;;;;;7.53;4.18;;;36.40;41.50;;;;;;5072058;28;20220;-59
2022/07/20 11:28:21;;;;;;;11.07;4.13;;;36.40;41.70;;;;;;5072597;28;20232;-57
2022/07/20 11:30:48;;;;;;;9.32;4.05;;;36.40;42.10;;;;;;5072259;28;20221;-59
2022/07/20 11:33:22;;;;;;;9.07;4.38;;;36.40;42.40;;;;;;5072472;28;20620;-59
2022/07/20 11:35:49;;;;;;;21.45;5.10;;;36.40;42.40;;;;;;5071948;28;20573;-59
2022/07/20 11:38:16;;;;;;;9.77;4.43;;;36.40;42.40;;;;;;5067350;28;20211;-59
2022/07/20 11:40:55;;;;;;;9.98;4.30;;;36.50;41.80;;;;;;5071159;28;20243;-59
2022/07/20 11:43:21;;;;;;;13.80;4.35;;;36.60;41.80;;;;;;5055702;28;20656;-66
2022/07/20 11:45:48;;;;;;;7.00;3.97;;;36.70;41.90;;;;;;5070784;28;20599;-60
2022/07/20 11:48:21;;;;;;;6.30;3.85;;;36.70;42.20;;;;;;5071747;28;20632;-58
2022/07/20 11:50:48;;;;;;;13.93;4.60;;;36.80;42.10;;;;;;5071853;28;20604;-61
2022/07/20 11:53:26;;;;;;;5.72;3.85;;;37.00;42.00;;;;;;5072199;28;20622;-61
2022/07/20 11:55:53;;;;;;;11.65;4.13;;;37.00;41.90;;;;;;5071659;28;20273;-61
2022/07/20 11:58:28;;;;;;;11.13;4.10;;;37.00;41.70;;;;;;5072104;28;20262;-60
2022/07/20 12:00:56;;;;;;;9.95;4.05;;;37.00;41.30;;;;;;5071949;28;20254;-59
2022/07/20 12:03:28;;;;;;;5.47;3.40;;;37.00;41.30;;;;;;5071940;28;20204;-60
2022/07/20 12:05:55;;;;;;;6.72;3.75;;;37.00;40.50;;;;;;5071648;28;20361;-54
2022/07/20 12:08:24;;;;;;;10.05;4.32;;;37.10;41.30;;;;;;5072867;28;20204;-55
2022/07/20 12:10:51;;;;;;;9.38;5.00;;;37.10;42.00;;;;;;5072879;28;20229;-55
2022/07/20 12:13:18;;;;;;;5.88;4.90;;;37.20;42.10;;;;;;5072278;28;20204;-55
2022/07/20 12:16:02;;;;;;;8.48;4.18;;;37.30;41.90;;;;;;5072276;28;20250;-57
2022/07/20 12:18:42;;;;;;;8.27;4.30;;;37.30;41.20;;;;;;5072296;28;20211;-56
2022/07/20 12:21:13;;;;;;;8.50;4.22;;;37.30;41.40;;;;;;5072594;28;20231;-56
2022/07/20 12:23:40;;;;;;;11.55;3.97;;;37.30;40.90;;;;;;5072406;28;20228;-55
2022/07/20 12:26:28;;;;;;;7.00;4.30;;;37.40;40.40;;;;;;5072082;28;20224;-55
2022/07/20 12:28:56;;;;;;;8.73;3.90;;;37.30;40.40;;;;;;5072194;28;20212;-55
2022/07/20 12:31:27;;;;;;;8.02;4.13;;;37.30;40.00;;;;;;5072598;28;20648;-55
2022/07/20 12:34:10;;;;;;;5.80;3.85;;;37.30;40.70;;;;;;5072465;28;20296;-55
2022/07/20 12:36:39;;;;;;;6.57;3.70;;;37.10;41.10;;;;;;5071917;28;20208;-55
2022/07/20 12:39:09;;;;;;;9.27;4.10;;;37.20;41.30;;;;;;5071936;28;20209;-56
2022/07/20 12:41:36;;;;;;;10.00;3.92;;;37.20;40.90;;;;;;5071978;28;20263;-56
2022/07/20 12:44:28;;;;;;;8.02;4.53;;;37.10;40.90;;;;;;5071957;28;20634;-55
2022/07/20 12:46:57;;;;;;;10.32;4.15;;;37.20;40.50;;;;;;5071840;28;20221;-55
2022/07/20 12:49:26;;;;;;;6.60;4.25;;;37.40;40.80;;;;;;5071767;28;20725;-55
2022/07/20 12:51:54;;;;;;;7.93;3.72;;;37.50;40.10;;;;;;5071707;28;20237;-55
2022/07/20 12:54:21;;;;;;;7.70;4.43;;;37.50;40.10;;;;;;5072044;28;20303;-55
2022/07/20 12:56:48;;;;;;;5.95;4.05;;;37.50;40.20;;;;;;5071680;28;20510;-55
2022/07/20 12:59:15;;;;;;;6.60;4.20;;;37.50;40.10;;;;;;5071909;28;20255;-55